createdAt,value
2018-10-04T00:02:10.654Z,18.40
2018-10-04T00:04:38.778Z,18.50
2018-10-04T00:07:07.019Z,18.40
2018-10-04T00:09:35.228Z,18.40
2018-10-04T00:12:03.600Z,18.40
2018-10-04T00:14:31.759Z,18.40
2018-10-04T00:16:59.916Z,18.40
2018-10-04T00:19:28.053Z,18.40
2018-10-04T00:21:56.264Z,18.40
2018-10-04T00:24:24.577Z,18.40
2018-10-04T00:26:52.904Z,18.40
2018-10-04T00:29:21.120Z,18.30
2018-10-04T00:31:49.265Z,18.30
2018-10-04T00:34:17.382Z,18.30
2018-10-04T00:36:45.534Z,18.30
2018-10-04T00:39:13.687Z,18.20
2018-10-04T00:41:41.824Z,18.30
2018-10-04T00:44:10.009Z,18.30
2018-10-04T00:46:38.292Z,18.20
2018-10-04T00:49:06.414Z,18.20
2018-10-04T00:51:34.544Z,18.20
2018-10-04T00:54:02.688Z,18.20
2018-10-04T00:56:30.843Z,18.20
2018-10-04T00:58:59.024Z,18.20
2018-10-04T01:01:27.250Z,18.20
2018-10-04T01:03:55.460Z,18.20
2018-10-04T01:06:23.829Z,18.20
2018-10-04T01:08:51.968Z,18.20
2018-10-04T01:11:20.092Z,18.10
2018-10-04T01:13:48.433Z,18.10
2018-10-04T01:16:16.680Z,18.10
2018-10-04T01:18:55.816Z,18.20
2018-10-04T01:21:24.264Z,18.10
2018-10-04T01:23:53.148Z,18.10
2018-10-04T01:26:21.505Z,18.10
2018-10-04T01:28:50.174Z,18.10
2018-10-04T01:31:18.997Z,18.10
2018-10-04T01:33:47.173Z,18.00
2018-10-04T01:36:15.403Z,18.10
2018-10-04T01:38:43.590Z,18.10
2018-10-04T01:41:11.718Z,18.10
2018-10-04T01:43:39.912Z,18.00
2018-10-04T01:46:08.089Z,18.00
2018-10-04T01:48:36.332Z,18.00
2018-10-04T01:51:04.536Z,18.00
2018-10-04T01:53:32.677Z,18.00
2018-10-04T01:56:00.806Z,18.00
2018-10-04T01:58:29.044Z,18.00
2018-10-04T02:00:57.219Z,18.00
2018-10-04T02:03:25.659Z,18.00
2018-10-04T02:05:53.904Z,17.90
2018-10-04T02:08:22.076Z,18.00
2018-10-04T02:10:50.210Z,18.00
2018-10-04T02:13:18.404Z,18.00
2018-10-04T02:15:46.588Z,17.90
2018-10-04T02:18:14.873Z,18.00
2018-10-04T02:20:43.090Z,17.90
2018-10-04T02:23:11.407Z,18.00
2018-10-04T02:25:39.560Z,17.90
2018-10-04T02:28:07.756Z,17.80
2018-10-04T02:30:35.905Z,17.90
2018-10-04T02:33:04.147Z,17.90
2018-10-04T02:35:32.334Z,17.90
2018-10-04T02:38:00.504Z,17.90
2018-10-04T02:40:28.807Z,17.80
2018-10-04T02:42:57.188Z,17.90
2018-10-04T02:45:25.344Z,17.80
2018-10-04T02:47:53.505Z,17.90
2018-10-04T02:50:21.639Z,17.90
2018-10-04T02:52:49.869Z,17.80
2018-10-04T02:55:23.421Z,17.80
2018-10-04T02:57:51.751Z,17.80
2018-10-04T03:00:20.037Z,17.80
2018-10-04T03:02:48.208Z,17.80
2018-10-04T03:05:16.363Z,17.70
2018-10-04T03:07:44.519Z,17.80
2018-10-04T03:10:12.649Z,17.80
2018-10-04T03:12:40.952Z,17.80
2018-10-04T03:15:09.114Z,17.80
2018-10-04T03:17:37.260Z,17.80
2018-10-04T03:20:05.445Z,17.80
2018-10-04T03:22:33.601Z,17.80
2018-10-04T03:25:01.760Z,17.80
2018-10-04T03:27:29.987Z,17.70
2018-10-04T03:29:58.265Z,17.80
2018-10-04T03:32:26.448Z,17.70
2018-10-04T03:34:54.580Z,17.70
2018-10-04T03:37:22.693Z,17.70
2018-10-04T03:39:50.821Z,17.70
2018-10-04T03:42:18.938Z,17.70
2018-10-04T03:44:47.117Z,17.70
2018-10-04T03:47:15.250Z,17.70
2018-10-04T03:49:43.453Z,17.60
2018-10-04T03:52:11.692Z,17.70
2018-10-04T03:54:39.835Z,17.60
2018-10-04T03:57:07.936Z,17.60
2018-10-04T03:59:36.107Z,17.60
2018-10-04T04:02:04.233Z,17.60
2018-10-04T04:04:32.652Z,17.60
2018-10-04T04:07:00.859Z,17.60
2018-10-04T04:09:29.028Z,17.70
2018-10-04T04:11:57.294Z,17.70
2018-10-04T04:14:25.395Z,17.60
2018-10-04T04:16:53.514Z,17.60
2018-10-04T04:19:21.652Z,17.70
2018-10-04T04:21:49.789Z,17.60
2018-10-04T04:24:18.029Z,17.60
2018-10-04T04:26:46.217Z,17.60
2018-10-04T04:29:14.526Z,17.60
2018-10-04T04:31:42.678Z,17.60
2018-10-04T04:34:10.820Z,17.70
2018-10-04T04:36:38.945Z,17.70
2018-10-04T04:39:07.564Z,17.60
2018-10-04T04:41:35.749Z,17.60
2018-10-04T04:44:04.021Z,17.60
2018-10-04T04:46:32.310Z,17.60
2018-10-04T04:49:00.508Z,17.60
2018-10-04T04:51:28.644Z,17.60
2018-10-04T04:53:56.793Z,17.60
2018-10-04T04:56:24.955Z,17.60
2018-10-04T04:58:53.077Z,17.60
2018-10-04T05:01:21.248Z,17.60
2018-10-04T05:03:49.613Z,17.60
2018-10-04T05:06:17.787Z,17.60
2018-10-04T05:08:45.988Z,17.50
2018-10-04T05:11:14.162Z,17.60
2018-10-04T05:13:42.288Z,17.60
2018-10-04T05:16:10.484Z,17.50
2018-10-04T05:18:38.580Z,17.50
2018-10-04T05:21:06.736Z,17.60
2018-10-04T05:23:35.374Z,17.50
2018-10-04T05:26:03.514Z,17.60
2018-10-04T05:28:31.666Z,17.60
2018-10-04T05:30:59.916Z,17.60
2018-10-04T05:33:28.089Z,17.50
2018-10-04T05:35:56.233Z,17.60
2018-10-04T05:38:24.415Z,17.60
2018-10-04T05:40:52.600Z,17.50
2018-10-04T05:43:20.798Z,17.50
2018-10-04T05:45:49.019Z,17.60
2018-10-04T05:48:17.317Z,17.60
2018-10-04T05:50:45.482Z,17.60
2018-10-04T05:53:13.667Z,17.60
2018-10-04T05:55:41.848Z,17.60
2018-10-04T05:58:10.027Z,17.60
2018-10-04T06:00:39.712Z,17.60
2018-10-04T06:03:07.920Z,17.60
2018-10-04T06:05:36.226Z,17.60
2018-10-04T06:08:04.517Z,17.60
2018-10-04T06:10:33.304Z,17.60
2018-10-04T06:13:01.466Z,17.60
2018-10-04T06:15:29.707Z,17.60
2018-10-04T06:17:57.828Z,17.60
2018-10-04T06:20:27.482Z,17.60
2018-10-04T06:22:55.730Z,17.60
2018-10-04T06:25:23.865Z,17.60
2018-10-04T06:27:52.044Z,17.60
2018-10-04T06:30:20.336Z,17.60
2018-10-04T06:32:48.492Z,17.60
2018-10-04T06:35:16.717Z,17.70
2018-10-04T06:37:44.950Z,17.60
2018-10-04T06:40:13.147Z,17.60
2018-10-04T06:42:41.372Z,17.70
2018-10-04T06:45:09.585Z,17.70
2018-10-04T06:47:37.960Z,17.70
2018-10-04T06:50:06.147Z,17.80
2018-10-04T06:52:34.425Z,17.70
2018-10-04T06:55:02.576Z,17.70
2018-10-04T06:57:30.772Z,17.70
2018-10-04T06:59:58.988Z,17.80
2018-10-04T07:02:27.253Z,17.80
2018-10-04T07:04:55.529Z,17.30
2018-10-04T07:07:23.764Z,17.00
2018-10-04T07:09:51.984Z,17.10
2018-10-04T07:12:20.102Z,17.00
2018-10-04T07:14:48.938Z,17.40
2018-10-04T07:17:17.227Z,17.80
2018-10-04T07:19:45.580Z,17.90
2018-10-04T07:22:14.029Z,18.10
2018-10-04T07:24:42.373Z,18.20
2018-10-04T07:27:10.501Z,18.30
2018-10-04T07:29:38.671Z,18.30
2018-10-04T07:32:06.836Z,18.40
2018-10-04T07:34:34.994Z,18.40
2018-10-04T07:37:03.137Z,18.40
2018-10-04T07:39:31.312Z,18.40
2018-10-04T07:41:59.695Z,18.40
2018-10-04T07:44:27.841Z,18.50
2018-10-04T07:46:55.996Z,18.40
2018-10-04T07:49:24.208Z,18.50
2018-10-04T07:51:52.351Z,18.50
2018-10-04T07:54:20.489Z,18.60
2018-10-04T07:56:48.614Z,18.70
2018-10-04T07:59:16.764Z,18.70
2018-10-04T08:01:44.961Z,18.70
2018-10-04T08:04:13.049Z,18.70
2018-10-04T08:06:41.599Z,18.70
2018-10-04T08:09:10.060Z,18.80
2018-10-04T08:11:38.302Z,18.80
2018-10-04T08:14:06.448Z,18.70
2018-10-04T08:16:34.640Z,18.60
2018-10-04T08:19:09.111Z,18.60
2018-10-04T08:21:37.273Z,18.50
2018-10-04T08:24:05.469Z,18.50
2018-10-04T08:26:33.937Z,18.50
2018-10-04T08:29:02.253Z,18.50
2018-10-04T08:31:30.424Z,18.70
2018-10-04T08:33:58.630Z,18.70
2018-10-04T08:36:26.766Z,18.70
2018-10-04T08:38:54.925Z,18.70
2018-10-04T08:41:23.199Z,18.70
2018-10-04T08:43:51.505Z,18.80
2018-10-04T08:46:19.715Z,19.00
2018-10-04T08:48:48.197Z,19.00
2018-10-04T08:51:16.397Z,19.00
2018-10-04T08:53:44.605Z,19.10
2018-10-04T08:56:12.816Z,19.30
2018-10-04T08:58:42.285Z,19.30
2018-10-04T09:01:10.436Z,19.40
2018-10-04T09:03:38.625Z,19.50
2018-10-04T09:06:06.955Z,19.60
2018-10-04T09:08:35.298Z,19.70
2018-10-04T09:11:03.484Z,19.80
2018-10-04T09:13:31.697Z,19.90
2018-10-04T09:15:59.972Z,19.80
2018-10-04T09:18:28.092Z,19.80
2018-10-04T09:20:56.257Z,19.90
2018-10-04T09:23:28.724Z,20.10
2018-10-04T09:25:56.928Z,20.20
2018-10-04T09:28:25.072Z,20.10
2018-10-04T09:30:58.536Z,20.10
2018-10-04T09:33:26.751Z,20.10
2018-10-04T09:35:54.954Z,20.30
2018-10-04T09:38:23.119Z,20.20
2018-10-04T09:40:51.567Z,20.20
2018-10-04T09:43:19.705Z,20.20
2018-10-04T09:45:48.320Z,20.20
2018-10-04T09:48:16.536Z,20.20
2018-10-04T09:50:44.756Z,20.30
2018-10-04T09:53:13.217Z,20.40
2018-10-04T09:55:46.837Z,20.40
2018-10-04T09:58:14.996Z,20.50
2018-10-04T10:00:48.569Z,20.50
2018-10-04T10:03:16.706Z,20.50
2018-10-04T10:05:44.882Z,20.50
2018-10-04T10:08:13.037Z,20.50
2018-10-04T10:10:41.384Z,20.50
2018-10-04T10:13:09.688Z,20.50
2018-10-04T10:15:37.867Z,20.60
2018-10-04T10:18:06.115Z,20.60
2018-10-04T10:20:34.262Z,20.60
2018-10-04T10:23:02.410Z,20.60
2018-10-04T10:25:30.622Z,20.70
2018-10-04T10:27:58.778Z,20.80
2018-10-04T10:30:26.950Z,20.70
2018-10-04T10:32:55.112Z,20.70
2018-10-04T10:35:23.383Z,20.70
2018-10-04T10:37:51.604Z,20.70
2018-10-04T10:40:19.935Z,20.70
2018-10-04T10:42:48.106Z,20.70
2018-10-04T10:45:16.293Z,20.80
2018-10-04T10:47:44.428Z,20.70
2018-10-04T10:50:12.606Z,20.80
2018-10-04T10:52:40.768Z,20.80
2018-10-04T10:55:08.924Z,20.70
2018-10-04T10:57:37.092Z,20.80
2018-10-04T11:00:05.242Z,20.90
2018-10-04T11:02:33.682Z,20.90
2018-10-04T11:05:01.908Z,21.00
2018-10-04T11:07:30.064Z,21.00
2018-10-04T11:09:58.373Z,21.00
2018-10-04T11:12:26.542Z,21.00
2018-10-04T11:14:54.751Z,21.20
2018-10-04T11:17:22.901Z,21.20
2018-10-04T11:19:51.129Z,21.30
2018-10-04T11:22:19.346Z,21.30
2018-10-04T11:24:47.515Z,21.40
2018-10-04T11:27:15.723Z,21.40
2018-10-04T11:29:43.864Z,21.50
2018-10-04T11:32:12.145Z,21.50
2018-10-04T11:34:40.628Z,21.50
2018-10-04T11:37:08.873Z,21.60
2018-10-04T11:39:37.102Z,21.60
2018-10-04T11:42:05.480Z,21.70
2018-10-04T11:44:37.208Z,21.80
2018-10-04T11:47:08.285Z,21.60
2018-10-04T11:49:36.443Z,21.60
2018-10-04T11:52:04.676Z,21.60
2018-10-04T11:54:32.812Z,21.60
2018-10-04T11:57:00.960Z,21.70
2018-10-04T11:59:29.121Z,21.70
2018-10-04T12:01:57.345Z,21.70
2018-10-04T12:04:25.618Z,21.70
2018-10-04T12:06:53.805Z,21.60
2018-10-04T12:09:22.209Z,21.70
2018-10-04T12:11:50.531Z,21.70
2018-10-04T12:14:18.664Z,21.60
2018-10-04T12:16:46.823Z,21.50
2018-10-04T12:19:14.955Z,21.50
2018-10-04T12:21:43.220Z,21.50
2018-10-04T12:24:11.374Z,21.50
2018-10-04T12:26:39.549Z,21.50
2018-10-04T12:29:07.864Z,21.50
2018-10-04T12:31:36.114Z,21.50
2018-10-04T12:34:04.383Z,21.50
2018-10-04T12:36:32.704Z,21.50
2018-10-04T12:39:00.892Z,21.50
2018-10-04T12:41:29.195Z,21.50
2018-10-04T12:43:57.331Z,21.50
2018-10-04T12:46:25.487Z,21.60
2018-10-04T12:48:53.609Z,21.60
2018-10-04T12:51:21.797Z,21.60
2018-10-04T12:53:50.038Z,21.60
2018-10-04T12:56:18.329Z,21.70
2018-10-04T12:58:46.632Z,21.70
2018-10-04T13:01:14.861Z,21.80
2018-10-04T13:03:43.350Z,21.70
2018-10-04T13:06:11.519Z,21.70
2018-10-04T13:08:39.742Z,21.70
2018-10-04T13:11:07.991Z,21.60
2018-10-04T13:13:36.216Z,21.60
2018-10-04T13:16:04.339Z,21.60
2018-10-04T13:18:32.476Z,21.50
2018-10-04T13:21:00.725Z,21.40
2018-10-04T13:23:28.741Z,21.50
2018-10-04T13:25:56.920Z,21.50
2018-10-04T13:28:25.112Z,21.50
2018-10-04T13:30:53.338Z,21.50
2018-10-04T13:33:21.529Z,21.50
2018-10-04T13:35:49.667Z,21.50
2018-10-04T13:38:17.847Z,21.50
2018-10-04T13:40:46.092Z,21.40
2018-10-04T13:43:14.392Z,21.40
2018-10-04T13:45:42.542Z,21.40
2018-10-04T13:48:10.673Z,21.30
2018-10-04T13:50:38.777Z,21.20
2018-10-04T13:53:06.922Z,21.20
2018-10-04T13:55:35.049Z,21.20
2018-10-04T13:58:03.192Z,21.20
2018-10-04T14:00:31.342Z,21.20
2018-10-04T14:02:59.507Z,21.20
2018-10-04T14:05:27.628Z,21.20
2018-10-04T14:07:55.813Z,21.10
2018-10-04T14:10:23.989Z,21.10
2018-10-04T14:12:52.227Z,21.10
2018-10-04T14:15:20.453Z,21.10
2018-10-04T14:17:48.806Z,21.20
2018-10-04T14:20:16.947Z,21.20
2018-10-04T14:22:45.199Z,21.20
2018-10-04T14:25:13.353Z,21.20
2018-10-04T14:27:41.481Z,21.30
2018-10-04T14:30:09.624Z,21.30
2018-10-04T14:32:37.779Z,21.40
2018-10-04T14:35:05.911Z,21.50
2018-10-04T14:37:34.081Z,21.50
2018-10-04T14:40:02.254Z,21.50
2018-10-04T14:42:30.406Z,21.60
2018-10-04T14:44:58.583Z,21.60
2018-10-04T14:47:26.744Z,21.50
2018-10-04T14:49:55.015Z,21.50
2018-10-04T14:52:23.211Z,21.50
2018-10-04T14:54:51.392Z,21.50
2018-10-04T14:57:19.797Z,21.50
2018-10-04T14:59:48.173Z,21.40
2018-10-04T15:02:16.533Z,21.30
2018-10-04T15:04:45.543Z,21.30
2018-10-04T15:07:13.696Z,21.30
2018-10-04T15:09:41.842Z,21.20
2018-10-04T15:12:09.995Z,21.30
2018-10-04T15:14:38.165Z,21.30
2018-10-04T15:17:06.494Z,21.20
2018-10-04T15:19:34.763Z,21.10
2018-10-04T15:22:03.078Z,21.10
2018-10-04T15:24:31.338Z,21.10
2018-10-04T15:26:59.456Z,21.10
2018-10-04T15:29:27.847Z,21.20
2018-10-04T15:31:56.060Z,21.20
2018-10-04T15:34:24.304Z,21.10
2018-10-04T15:36:52.648Z,21.10
2018-10-04T15:39:20.809Z,21.10
2018-10-04T15:41:48.956Z,21.10
2018-10-04T15:44:17.143Z,21.20
2018-10-04T15:46:45.264Z,21.10
2018-10-04T15:49:13.461Z,21.20
2018-10-04T15:51:41.704Z,21.20
2018-10-04T15:54:09.828Z,21.20
2018-10-04T15:56:37.940Z,21.20
2018-10-04T15:59:06.075Z,21.20
2018-10-04T16:01:34.210Z,21.10
2018-10-04T16:04:02.322Z,21.10
2018-10-04T16:06:30.457Z,21.10
2018-10-04T16:08:58.744Z,21.00
2018-10-04T16:11:27.031Z,21.00
2018-10-04T16:13:55.340Z,20.90
2018-10-04T16:16:23.500Z,20.90
2018-10-04T16:18:52.228Z,20.90
2018-10-04T16:21:20.416Z,20.80
2018-10-04T16:23:48.545Z,20.90
2018-10-04T16:26:16.680Z,20.90
2018-10-04T16:28:45.142Z,20.70
2018-10-04T16:31:13.432Z,20.70
2018-10-04T16:33:41.825Z,20.70
2018-10-04T16:36:10.362Z,20.70
2018-10-04T16:38:38.710Z,20.60
2018-10-04T16:41:07.135Z,20.60
2018-10-04T16:43:35.442Z,20.60
2018-10-04T16:46:03.724Z,20.60
2018-10-04T16:48:31.940Z,20.60
2018-10-04T16:51:00.102Z,20.60
2018-10-04T16:53:28.226Z,20.60
2018-10-04T16:55:56.344Z,20.60
2018-10-04T16:58:24.450Z,20.60
2018-10-04T17:00:52.593Z,20.50
2018-10-04T17:03:20.724Z,20.50
2018-10-04T17:05:48.844Z,20.50
2018-10-04T17:08:16.971Z,20.50
2018-10-04T17:10:45.107Z,20.40
2018-10-04T17:13:13.252Z,20.40
2018-10-04T17:15:41.421Z,20.40
2018-10-04T17:18:09.580Z,20.40
2018-10-04T17:20:37.724Z,20.40
2018-10-04T17:23:05.881Z,20.30
2018-10-04T17:25:34.017Z,20.40
2018-10-04T17:28:02.180Z,20.30
2018-10-04T17:30:30.373Z,20.30
2018-10-04T17:32:58.559Z,20.30
2018-10-04T17:35:26.937Z,20.30
2018-10-04T17:37:55.096Z,20.30
2018-10-04T17:40:23.286Z,20.20
2018-10-04T17:42:51.433Z,20.20
2018-10-04T17:45:19.620Z,20.30
2018-10-04T17:47:47.875Z,20.30
2018-10-04T17:50:16.020Z,20.20
2018-10-04T17:55:18.575Z,20.20
2018-10-04T17:57:46.764Z,20.20
2018-10-04T18:00:15.401Z,20.20
2018-10-04T18:02:43.600Z,20.20
2018-10-04T18:05:12.012Z,20.20
2018-10-04T18:07:40.689Z,20.20
2018-10-04T18:10:08.872Z,20.20
2018-10-04T18:12:37.019Z,20.20
2018-10-04T18:15:05.585Z,20.20
2018-10-04T18:17:33.765Z,20.20
2018-10-04T18:20:01.948Z,20.20
2018-10-04T18:22:30.092Z,20.20
2018-10-04T18:24:58.260Z,20.10
2018-10-04T18:27:26.419Z,20.10
2018-10-04T18:29:54.625Z,20.10
2018-10-04T18:32:22.818Z,20.10
2018-10-04T18:34:50.979Z,20.10
2018-10-04T18:37:19.146Z,20.10
2018-10-04T18:39:47.304Z,20.10
2018-10-04T18:42:15.483Z,20.10
2018-10-04T18:44:43.660Z,20.10
2018-10-04T18:47:11.812Z,20.10
2018-10-04T18:49:42.193Z,20.10
2018-10-04T18:52:10.800Z,20.00
2018-10-04T18:54:38.937Z,20.00
2018-10-04T18:57:07.100Z,20.00
2018-10-04T18:59:35.244Z,20.00
2018-10-04T19:02:03.398Z,20.00
2018-10-04T19:04:31.814Z,20.00
2018-10-04T19:07:00.016Z,20.00
2018-10-04T19:09:28.148Z,20.00
2018-10-04T19:11:56.275Z,20.00
2018-10-04T19:14:24.428Z,20.00
2018-10-04T19:16:52.605Z,20.00
2018-10-04T19:19:20.752Z,20.00
2018-10-04T19:21:48.930Z,20.00
2018-10-04T19:24:17.128Z,20.00
2018-10-04T19:26:45.308Z,19.90
2018-10-04T19:29:13.503Z,20.00
2018-10-04T19:31:41.665Z,20.00
2018-10-04T19:34:09.817Z,19.90
2018-10-04T19:36:40.092Z,20.00
2018-10-04T19:39:08.491Z,19.90
2018-10-04T19:41:36.972Z,19.90
2018-10-04T19:44:05.216Z,19.90
2018-10-04T19:46:33.372Z,19.90
2018-10-04T19:49:01.671Z,20.00
2018-10-04T19:51:30.288Z,19.90
2018-10-04T19:53:58.451Z,19.90
2018-10-04T19:56:26.705Z,19.90
2018-10-04T19:58:55.210Z,19.90
2018-10-04T20:01:23.423Z,19.90
2018-10-04T20:03:51.837Z,19.90
2018-10-04T20:06:19.873Z,19.90
2018-10-04T20:08:48.038Z,19.90
2018-10-04T20:11:16.205Z,19.90
2018-10-04T20:13:44.400Z,19.90
2018-10-04T20:16:12.573Z,19.90
2018-10-04T20:18:40.761Z,19.90
2018-10-04T20:21:08.930Z,19.90
2018-10-04T20:23:37.077Z,19.90
2018-10-04T20:26:05.250Z,19.90
2018-10-04T20:28:33.489Z,19.90
2018-10-04T20:31:01.823Z,19.90
2018-10-04T20:33:30.231Z,19.80
2018-10-04T20:35:59.218Z,19.90
2018-10-04T20:38:27.472Z,19.90
2018-10-04T20:40:55.756Z,19.90
2018-10-04T20:43:23.951Z,19.80
2018-10-04T20:45:52.176Z,19.80
2018-10-04T20:48:20.322Z,19.80
2018-10-04T20:50:48.588Z,19.80
2018-10-04T20:53:16.868Z,19.80
2018-10-04T20:55:45.041Z,19.80
2018-10-04T20:58:13.273Z,19.80
2018-10-04T21:00:41.499Z,19.80
2018-10-04T21:03:09.728Z,19.80
2018-10-04T21:05:37.904Z,19.80
2018-10-04T21:08:06.318Z,19.80
2018-10-04T21:10:34.703Z,19.80
2018-10-04T21:13:05.425Z,19.80
2018-10-04T21:15:33.702Z,19.80
2018-10-04T21:18:01.857Z,19.80
2018-10-04T21:20:30.084Z,19.70
2018-10-04T21:22:58.294Z,19.80
2018-10-04T21:25:26.520Z,19.80
2018-10-04T21:27:54.677Z,19.80
2018-10-04T21:30:22.969Z,19.70
2018-10-04T21:32:51.108Z,19.70
2018-10-04T21:35:19.445Z,19.70
2018-10-04T21:37:47.656Z,19.80
2018-10-04T21:40:15.870Z,19.70
2018-10-04T21:42:44.048Z,19.70
2018-10-04T21:45:12.286Z,19.70
2018-10-04T21:47:40.541Z,19.70
2018-10-04T21:50:08.714Z,19.60
2018-10-04T21:52:36.971Z,19.60
2018-10-04T21:55:05.315Z,19.60
2018-10-04T21:57:33.465Z,19.60
2018-10-04T22:00:01.662Z,19.60
2018-10-04T22:02:29.820Z,19.50
2018-10-04T22:04:57.994Z,19.50
2018-10-04T22:07:26.190Z,19.50
2018-10-04T22:09:54.343Z,19.50
2018-10-04T22:12:22.509Z,19.50
2018-10-04T22:14:50.737Z,19.50
2018-10-04T22:17:18.887Z,19.40
2018-10-04T22:19:47.087Z,19.40
2018-10-04T22:22:15.233Z,19.40
2018-10-04T22:24:43.377Z,19.40
2018-10-04T22:27:11.552Z,19.40
2018-10-04T22:29:39.716Z,19.40
2018-10-04T22:32:07.894Z,19.40
2018-10-04T22:34:36.100Z,19.30
2018-10-04T22:37:04.285Z,19.30
2018-10-04T22:39:32.667Z,19.30
2018-10-04T22:42:00.839Z,19.30
2018-10-04T22:44:29.063Z,19.20
2018-10-04T22:46:57.248Z,19.20
2018-10-04T22:49:25.869Z,19.20
2018-10-04T22:51:54.053Z,19.20
2018-10-04T22:54:22.217Z,19.20
2018-10-04T22:56:50.463Z,19.20
2018-10-04T22:59:18.610Z,19.20
2018-10-04T23:01:46.797Z,19.10
2018-10-04T23:04:14.985Z,19.10
2018-10-04T23:06:43.160Z,19.10
2018-10-04T23:09:11.325Z,19.10
2018-10-04T23:11:39.505Z,19.10
2018-10-04T23:14:07.714Z,19.00
2018-10-04T23:16:36.188Z,19.00
2018-10-04T23:19:04.340Z,19.00
2018-10-04T23:21:32.693Z,19.00
2018-10-04T23:24:00.891Z,19.00
2018-10-04T23:26:29.059Z,19.00
2018-10-04T23:28:57.201Z,19.00
2018-10-04T23:31:25.349Z,18.90
2018-10-04T23:33:53.475Z,18.90
2018-10-04T23:36:21.609Z,18.90
2018-10-04T23:38:49.749Z,18.90
2018-10-04T23:41:17.884Z,18.90
2018-10-04T23:43:46.060Z,18.80
2018-10-04T23:46:14.212Z,18.80
2018-10-04T23:48:42.356Z,18.80
2018-10-04T23:51:10.504Z,18.80
2018-10-04T23:53:38.636Z,18.80
2018-10-04T23:56:06.840Z,18.70
2018-10-04T23:58:34.984Z,18.70
